createdAt,value
2018-02-22T00:01:09.175Z,42.50
2018-02-22T00:03:35.747Z,42.50
2018-02-22T00:06:01.985Z,42.50
2018-02-22T00:08:28.950Z,42.50
2018-02-22T00:10:55.201Z,42.50
2018-02-22T00:13:22.177Z,42.50
2018-02-22T00:15:48.411Z,42.50
2018-02-22T00:18:14.647Z,42.50
2018-02-22T00:20:40.908Z,42.50
2018-02-22T00:23:07.130Z,42.40
2018-02-22T00:25:33.374Z,42.40
2018-02-22T00:27:59.595Z,42.40
2018-02-22T00:30:25.824Z,42.40
2018-02-22T00:32:52.104Z,42.40
2018-02-22T00:35:18.329Z,42.40
2018-02-22T00:37:44.563Z,42.40
2018-02-22T00:40:10.803Z,42.40
2018-02-22T00:42:37.022Z,42.40
2018-02-22T00:45:03.295Z,42.50
2018-02-22T00:47:30.333Z,42.50
2018-02-22T00:49:56.563Z,42.30
2018-02-22T00:52:23.049Z,42.40
2018-02-22T00:54:49.289Z,42.30
2018-02-22T00:57:15.548Z,42.30
2018-02-22T00:59:41.797Z,42.30
2018-02-22T01:02:08.051Z,42.40
2018-02-22T01:04:34.291Z,42.40
2018-02-22T01:07:00.519Z,42.40
2018-02-22T01:09:26.791Z,42.40
2018-02-22T01:11:53.027Z,42.40
2018-02-22T01:14:19.272Z,42.40
2018-02-22T01:16:45.530Z,42.40
2018-02-22T01:19:12.255Z,42.40
2018-02-22T01:21:38.521Z,42.40
2018-02-22T01:24:04.751Z,42.40
2018-02-22T01:26:30.983Z,42.40
2018-02-22T01:28:57.202Z,42.40
2018-02-22T01:31:23.440Z,42.40
2018-02-22T01:33:49.739Z,42.40
2018-02-22T01:36:15.950Z,42.40
2018-02-22T01:38:42.171Z,42.40
2018-02-22T01:41:08.423Z,42.40
2018-02-22T01:43:35.428Z,42.40
2018-02-22T01:46:01.706Z,42.40
2018-02-22T01:48:27.944Z,42.40
2018-02-22T01:50:54.158Z,42.40
2018-02-22T01:53:20.873Z,42.20
2018-02-22T01:55:47.453Z,42.40
2018-02-22T01:58:13.741Z,42.40
2018-02-22T02:00:40.006Z,42.40
2018-02-22T02:03:06.259Z,42.40
2018-02-22T02:05:32.497Z,42.40
2018-02-22T02:07:58.716Z,42.40
2018-02-22T02:10:25.002Z,42.40
2018-02-22T02:12:51.227Z,42.40
2018-02-22T02:15:17.452Z,42.40
2018-02-22T02:17:43.813Z,42.40
2018-02-22T02:20:10.046Z,42.50
2018-02-22T02:22:36.300Z,42.40
2018-02-22T02:25:02.745Z,42.40
2018-02-22T02:27:28.962Z,42.40
2018-02-22T02:29:55.209Z,42.40
2018-02-22T02:32:21.455Z,42.50
2018-02-22T02:34:47.741Z,42.40
2018-02-22T02:37:13.986Z,42.40
2018-02-22T02:39:40.998Z,42.50
2018-02-22T02:42:07.236Z,42.40
2018-02-22T02:44:34.215Z,42.50
2018-02-22T02:47:01.270Z,42.50
2018-02-22T02:49:28.282Z,42.50
2018-02-22T02:51:54.502Z,42.40
2018-02-22T02:54:20.742Z,42.50
2018-02-22T02:56:46.963Z,42.50
2018-02-22T02:59:13.595Z,42.50
2018-02-22T03:01:39.840Z,42.50
2018-02-22T03:04:06.087Z,42.50
2018-02-22T03:06:32.327Z,42.50
2018-02-22T03:08:58.565Z,42.50
2018-02-22T03:11:24.883Z,42.50
2018-02-22T03:13:51.744Z,42.50
2018-02-22T03:16:17.975Z,43.10
2018-02-22T03:18:44.226Z,42.50
2018-02-22T03:21:10.470Z,42.50
2018-02-22T03:23:36.736Z,42.50
2018-02-22T03:26:02.967Z,42.50
2018-02-22T03:28:29.569Z,42.50
2018-02-22T03:30:55.803Z,42.50
2018-02-22T03:33:22.023Z,42.50
2018-02-22T03:35:48.297Z,42.50
2018-02-22T03:38:14.519Z,42.50
2018-02-22T03:40:40.755Z,42.50
2018-02-22T03:43:07.034Z,42.40
2018-02-22T03:45:33.272Z,42.50
2018-02-22T03:47:59.542Z,42.50
2018-02-22T03:50:25.759Z,42.40
2018-02-22T03:52:52.033Z,42.40
2018-02-22T03:55:18.302Z,42.50
2018-02-22T03:57:44.515Z,42.50
2018-02-22T04:00:10.778Z,42.50
2018-02-22T04:02:37.037Z,42.50
2018-02-22T04:05:03.259Z,42.50
2018-02-22T04:07:29.516Z,42.40
2018-02-22T04:09:56.336Z,42.50
2018-02-22T04:12:22.606Z,42.40
2018-02-22T04:14:48.843Z,42.40
2018-02-22T04:17:15.086Z,42.40
2018-02-22T04:19:41.298Z,42.40
2018-02-22T04:22:07.546Z,42.40
2018-02-22T04:24:33.810Z,42.40
2018-02-22T04:27:00.033Z,42.40
2018-02-22T04:29:26.258Z,42.40
2018-02-22T04:31:52.490Z,42.40
2018-02-22T04:34:18.726Z,42.40
2018-02-22T04:36:45.006Z,42.40
2018-02-22T04:39:11.284Z,42.50
2018-02-22T04:41:37.525Z,42.40
2018-02-22T04:44:03.814Z,42.50
2018-02-22T04:46:30.035Z,42.50
2018-02-22T04:48:57.059Z,42.50
2018-02-22T04:51:23.297Z,42.50
2018-02-22T04:53:49.548Z,42.50
2018-02-22T04:56:15.789Z,42.50
2018-02-22T04:58:42.799Z,42.50
2018-02-22T05:01:09.079Z,42.40
2018-02-22T05:03:35.333Z,42.40
2018-02-22T05:06:01.573Z,42.40
2018-02-22T05:08:27.817Z,42.40
2018-02-22T05:10:54.063Z,42.40
2018-02-22T05:13:20.772Z,42.40
2018-02-22T05:15:46.986Z,42.40
2018-02-22T05:18:13.211Z,42.50
2018-02-22T05:20:40.212Z,42.40
2018-02-22T05:23:07.188Z,42.40
2018-02-22T05:25:33.456Z,42.50
2018-02-22T05:27:59.684Z,42.50
2018-02-22T05:32:58.429Z,43.00
2018-02-22T05:35:24.653Z,42.40
2018-02-22T05:37:51.674Z,42.50
2018-02-22T05:40:17.917Z,42.50
2018-02-22T05:42:44.162Z,42.50
2018-02-22T05:45:10.402Z,42.50
2018-02-22T05:47:36.641Z,42.50
2018-02-22T05:50:02.919Z,42.50
2018-02-22T05:52:29.161Z,42.50
2018-02-22T05:54:55.401Z,42.50
2018-02-22T05:57:21.655Z,42.50
2018-02-22T05:59:47.899Z,42.40
2018-02-22T06:02:15.904Z,42.20
2018-02-22T06:04:42.146Z,42.20
2018-02-22T06:07:08.390Z,42.10
2018-02-22T06:09:34.646Z,42.60
2018-02-22T06:12:00.867Z,42.10
2018-02-22T06:14:27.148Z,42.00
2018-02-22T06:16:53.369Z,42.00
2018-02-22T06:19:19.606Z,41.90
2018-02-22T06:21:46.643Z,40.90
2018-02-22T06:24:12.878Z,40.80
2018-02-22T06:26:39.841Z,40.40
2018-02-22T06:29:06.093Z,40.40
2018-02-22T06:31:32.345Z,40.90
2018-02-22T06:33:58.591Z,41.60
2018-02-22T06:36:25.762Z,41.80
2018-02-22T06:38:52.050Z,41.70
2018-02-22T06:41:18.282Z,41.80
2018-02-22T06:43:44.511Z,41.70
2018-02-22T06:46:11.452Z,41.70
2018-02-22T06:48:37.676Z,41.50
2018-02-22T06:51:04.318Z,41.80
2018-02-22T06:53:30.554Z,41.90
2018-02-22T06:55:57.082Z,41.90
2018-02-22T06:58:23.323Z,42.00
2018-02-22T07:00:49.548Z,42.00
2018-02-22T07:03:15.812Z,41.90
2018-02-22T07:05:42.063Z,42.00
2018-02-22T07:08:09.570Z,42.00
2018-02-22T07:10:35.788Z,42.00
2018-02-22T07:13:02.015Z,42.00
2018-02-22T07:15:29.036Z,42.00
2018-02-22T07:17:55.285Z,42.00
2018-02-22T07:20:21.503Z,42.00
2018-02-22T07:22:47.749Z,42.00
2018-02-22T07:25:14.443Z,42.00
2018-02-22T07:27:40.777Z,42.00
2018-02-22T07:30:07.341Z,42.00
2018-02-22T07:32:33.599Z,42.00
2018-02-22T07:34:59.826Z,42.00
2018-02-22T07:37:26.058Z,42.00
2018-02-22T07:39:52.322Z,42.00
2018-02-22T07:42:18.547Z,42.00
2018-02-22T07:44:44.771Z,42.00
2018-02-22T07:47:11.006Z,42.00
2018-02-22T07:49:37.985Z,42.00
2018-02-22T07:52:05.026Z,42.10
2018-02-22T07:54:31.294Z,42.00
2018-02-22T07:56:57.523Z,42.70
2018-02-22T07:59:23.757Z,42.00
2018-02-22T08:01:50.770Z,42.10
2018-02-22T08:04:17.774Z,42.00
2018-02-22T08:06:44.038Z,42.10
2018-02-22T08:09:10.272Z,42.20
2018-02-22T08:11:36.487Z,42.20
2018-02-22T08:14:02.789Z,42.20
2018-02-22T08:16:29.094Z,42.20
2018-02-22T08:18:55.314Z,42.20
2018-02-22T08:21:21.564Z,42.20
2018-02-22T08:23:47.805Z,42.20
2018-02-22T08:26:14.053Z,42.20
2018-02-22T08:28:40.320Z,42.20
2018-02-22T08:31:06.551Z,42.20
2018-02-22T08:33:32.808Z,42.20
2018-02-22T08:35:59.050Z,42.20
2018-02-22T08:38:25.313Z,42.20
2018-02-22T08:40:51.570Z,42.20
2018-02-22T08:43:18.420Z,42.20
2018-02-22T08:45:45.408Z,42.30
2018-02-22T08:48:12.350Z,42.20
2018-02-22T08:50:38.577Z,42.20
2018-02-22T08:53:04.866Z,42.20
2018-02-22T08:55:31.111Z,42.20
2018-02-22T08:57:57.811Z,42.20
2018-02-22T09:00:24.341Z,42.30
2018-02-22T09:02:50.594Z,42.30
2018-02-22T09:05:16.872Z,42.30
2018-02-22T09:07:43.131Z,42.30
2018-02-22T09:10:10.919Z,42.40
2018-02-22T09:12:37.197Z,42.30
2018-02-22T09:15:03.428Z,42.30
2018-02-22T09:17:29.703Z,42.30
2018-02-22T09:19:55.938Z,42.30
2018-02-22T09:22:22.986Z,42.40
2018-02-22T09:24:49.989Z,42.30
2018-02-22T09:27:16.245Z,42.20
2018-02-22T09:29:42.513Z,42.30
2018-02-22T09:32:08.772Z,42.30
2018-02-22T09:34:35.230Z,42.30
2018-02-22T09:37:01.744Z,42.30
2018-02-22T09:39:27.981Z,42.30
2018-02-22T09:41:54.226Z,42.30
2018-02-22T09:44:20.647Z,42.30
2018-02-22T09:46:47.634Z,42.30
2018-02-22T09:49:13.882Z,42.20
2018-02-22T09:51:40.117Z,42.30
2018-02-22T09:54:06.414Z,42.30
2018-02-22T09:56:32.801Z,42.30
2018-02-22T09:58:59.104Z,42.30
2018-02-22T10:01:25.327Z,42.30
2018-02-22T10:03:51.537Z,42.30
2018-02-22T10:06:17.821Z,42.30
2018-02-22T10:08:44.061Z,42.30
2018-02-22T10:11:10.281Z,42.30
2018-02-22T10:13:36.521Z,42.30
2018-02-22T10:16:02.759Z,42.30
2018-02-22T10:18:29.446Z,42.30
2018-02-22T10:20:55.663Z,42.30
2018-02-22T10:23:21.893Z,42.30
2018-02-22T10:25:48.127Z,42.30
2018-02-22T10:28:14.338Z,42.30
2018-02-22T10:30:40.605Z,42.30
2018-02-22T10:33:07.084Z,42.30
2018-02-22T10:35:33.335Z,42.30
2018-02-22T10:38:00.513Z,42.30
2018-02-22T10:40:26.734Z,42.30
2018-02-22T10:42:52.959Z,42.30
2018-02-22T10:45:19.771Z,42.30
2018-02-22T10:47:46.761Z,42.30
2018-02-22T10:50:13.001Z,42.30
2018-02-22T10:52:39.215Z,42.30
2018-02-22T10:55:05.449Z,42.30
2018-02-22T10:57:32.103Z,42.30
2018-02-22T10:59:58.331Z,42.30
2018-02-22T11:02:24.579Z,42.30
2018-02-22T11:04:50.807Z,42.90
2018-02-22T11:07:17.089Z,42.30
2018-02-22T11:09:43.338Z,42.30
2018-02-22T11:12:09.574Z,42.30
2018-02-22T11:14:35.885Z,42.30
2018-02-22T11:17:02.140Z,42.40
2018-02-22T11:19:28.360Z,42.30
2018-02-22T11:21:54.583Z,42.30
2018-02-22T11:24:20.826Z,42.30
2018-02-22T11:26:47.086Z,42.30
2018-02-22T11:29:14.080Z,42.30
2018-02-22T11:31:40.310Z,42.30
2018-02-22T11:34:06.557Z,42.40
2018-02-22T11:36:32.802Z,42.40
2018-02-22T11:38:59.088Z,42.40
2018-02-22T11:41:25.329Z,42.40
2018-02-22T11:43:51.569Z,42.40
2018-02-22T11:46:17.821Z,42.40
2018-02-22T11:48:44.057Z,42.40
2018-02-22T11:51:10.310Z,42.30
2018-02-22T11:53:36.529Z,42.30
2018-02-22T11:56:02.767Z,42.30
2018-02-22T11:58:29.086Z,42.20
2018-02-22T12:00:55.317Z,42.30
2018-02-22T12:03:21.597Z,42.30
2018-02-22T12:05:48.628Z,42.80
2018-02-22T12:08:14.852Z,42.30
2018-02-22T12:10:41.149Z,42.30
2018-02-22T12:13:08.330Z,42.40
2018-02-22T12:15:34.609Z,42.20
2018-02-22T12:18:00.838Z,42.30
2018-02-22T12:20:27.425Z,42.30
2018-02-22T12:22:53.675Z,42.30
2018-02-22T12:25:19.937Z,42.30
2018-02-22T12:27:46.198Z,42.30
2018-02-22T12:30:12.551Z,42.30
2018-02-22T12:32:39.459Z,42.30
2018-02-22T12:35:05.694Z,42.40
2018-02-22T12:37:31.919Z,42.30
2018-02-22T12:39:58.192Z,42.30
2018-02-22T12:42:24.408Z,42.40
2018-02-22T12:44:50.650Z,42.30
2018-02-22T12:47:16.895Z,42.30
2018-02-22T12:49:43.130Z,42.30
2018-02-22T12:52:09.404Z,42.40
2018-02-22T12:54:35.645Z,42.40
2018-02-22T12:57:01.905Z,42.40
2018-02-22T12:59:28.142Z,42.30
2018-02-22T13:01:54.363Z,42.30
2018-02-22T13:04:20.722Z,42.30
2018-02-22T13:06:46.973Z,42.30
2018-02-22T13:09:13.196Z,42.30
2018-02-22T13:11:39.410Z,42.30
2018-02-22T13:14:05.655Z,42.30
2018-02-22T13:16:31.933Z,42.20
2018-02-22T13:18:58.178Z,42.20
2018-02-22T13:21:25.171Z,42.90
2018-02-22T13:23:51.393Z,42.20
2018-02-22T13:26:17.641Z,42.20
2018-02-22T13:28:43.906Z,42.20
2018-02-22T13:31:10.835Z,42.20
2018-02-22T13:33:37.074Z,42.20
2018-02-22T13:36:03.343Z,42.20
2018-02-22T13:38:29.578Z,42.20
2018-02-22T13:40:55.833Z,42.20
2018-02-22T13:43:22.811Z,42.30
2018-02-22T13:45:49.067Z,42.20
2018-02-22T13:48:15.308Z,42.20
2018-02-22T13:50:41.546Z,42.20
2018-02-22T13:53:07.790Z,42.20
2018-02-22T13:55:34.038Z,42.20
2018-02-22T13:58:00.413Z,42.30
2018-02-22T14:00:26.647Z,42.30
2018-02-22T14:02:52.900Z,42.30
2018-02-22T14:05:19.139Z,42.30
2018-02-22T14:07:45.394Z,42.30
2018-02-22T14:10:11.698Z,42.30
2018-02-22T14:12:37.962Z,42.30
2018-02-22T14:15:04.198Z,42.20
2018-02-22T14:17:30.430Z,42.30
2018-02-22T14:19:56.697Z,42.20
2018-02-22T14:22:22.962Z,42.20
2018-02-22T14:24:49.218Z,42.20
2018-02-22T14:27:15.439Z,42.20
2018-02-22T14:29:41.698Z,42.20
2018-02-22T14:32:07.951Z,42.80
2018-02-22T14:34:34.217Z,42.30
2018-02-22T14:37:00.477Z,42.20
2018-02-22T14:39:26.982Z,42.30
2018-02-22T14:41:53.189Z,42.20
2018-02-22T14:44:20.131Z,41.90
2018-02-22T14:46:46.574Z,42.20
2018-02-22T14:49:13.538Z,42.20
2018-02-22T14:51:39.762Z,42.20
2018-02-22T14:54:06.035Z,42.20
2018-02-22T14:56:33.059Z,42.30
2018-02-22T14:58:59.327Z,42.20
2018-02-22T15:01:25.562Z,42.20
2018-02-22T15:03:52.026Z,42.20
2018-02-22T15:06:18.275Z,42.20
2018-02-22T15:08:44.498Z,42.20
2018-02-22T15:11:10.975Z,42.20
2018-02-22T15:13:37.221Z,42.20
2018-02-22T15:16:04.183Z,42.20
2018-02-22T15:18:30.429Z,42.30
2018-02-22T15:20:56.673Z,42.20
2018-02-22T15:23:22.940Z,42.80
2018-02-22T15:25:49.177Z,42.20
2018-02-22T15:28:15.427Z,42.20
2018-02-22T15:30:41.651Z,42.20
2018-02-22T15:33:07.906Z,42.20
2018-02-22T15:35:34.191Z,42.20
2018-02-22T15:38:00.437Z,42.20
2018-02-22T15:40:27.829Z,42.20
2018-02-22T15:42:54.068Z,42.20
2018-02-22T15:45:20.305Z,42.20
2018-02-22T15:47:46.581Z,42.20
2018-02-22T15:50:13.385Z,42.20
2018-02-22T15:52:39.606Z,42.20
2018-02-22T15:55:05.841Z,42.20
2018-02-22T15:57:32.060Z,42.20
2018-02-22T15:59:58.333Z,42.20
2018-02-22T16:02:25.290Z,42.20
2018-02-22T16:04:51.574Z,42.20
2018-02-22T16:07:17.787Z,42.20
2018-02-22T16:09:44.002Z,42.20
2018-02-22T16:12:10.278Z,42.20
2018-02-22T16:14:36.521Z,42.10
2018-02-22T16:17:02.746Z,42.20
2018-02-22T16:19:28.994Z,42.20
2018-02-22T16:21:55.258Z,42.20
2018-02-22T16:24:21.557Z,42.20
2018-02-22T16:26:47.771Z,42.20
2018-02-22T16:29:14.012Z,42.20
2018-02-22T16:31:40.253Z,42.30
2018-02-22T16:34:06.492Z,42.30
2018-02-22T16:36:32.767Z,42.30
2018-02-22T16:38:59.006Z,42.30
2018-02-22T16:41:25.230Z,42.30
2018-02-22T16:43:51.455Z,42.30
2018-02-22T16:46:17.680Z,42.50
2018-02-22T16:48:43.950Z,42.40
2018-02-22T16:51:10.174Z,42.30
2018-02-22T16:53:36.411Z,42.40
2018-02-22T16:56:02.650Z,42.40
2018-02-22T16:58:28.889Z,42.40
2018-02-22T17:00:55.162Z,43.00
2018-02-22T17:03:21.388Z,42.50
2018-02-22T17:05:48.818Z,42.50
2018-02-22T17:08:15.533Z,42.40
2018-02-22T17:10:42.662Z,42.40
2018-02-22T17:13:09.620Z,42.40
2018-02-22T17:15:36.635Z,42.40
2018-02-22T17:18:02.851Z,42.40
2018-02-22T17:20:29.086Z,42.00
2018-02-22T17:22:55.307Z,42.50
2018-02-22T17:25:21.568Z,42.50
2018-02-22T17:27:47.790Z,42.40
2018-02-22T17:30:14.006Z,42.50
2018-02-22T17:32:40.984Z,42.50
2018-02-22T17:35:07.289Z,42.50
2018-02-22T17:37:33.511Z,42.50
2018-02-22T17:39:59.775Z,42.50
2018-02-22T17:42:26.039Z,42.50
2018-02-22T17:44:52.289Z,42.50
2018-02-22T17:47:18.569Z,42.70
2018-02-22T17:49:44.826Z,42.70
2018-02-22T17:52:11.062Z,42.70
2018-02-22T17:54:37.310Z,42.80
2018-02-22T17:57:03.551Z,42.90
2018-02-22T17:59:30.557Z,42.90
2018-02-22T18:01:56.831Z,42.80
2018-02-22T18:04:23.051Z,42.90
2018-02-22T18:06:49.301Z,42.90
2018-02-22T18:09:15.519Z,42.90
2018-02-22T18:11:41.743Z,43.40
2018-02-22T18:14:08.017Z,43.10
2018-02-22T18:16:35.029Z,43.30
2018-02-22T18:19:01.257Z,43.30
2018-02-22T18:21:27.510Z,43.20
2018-02-22T18:23:53.749Z,43.40
2018-02-22T18:26:20.686Z,43.40
2018-02-22T18:28:46.907Z,43.40
2018-02-22T18:31:13.134Z,43.40
2018-02-22T18:33:39.372Z,43.60
2018-02-22T18:36:06.364Z,43.60
2018-02-22T18:38:32.668Z,43.50
2018-02-22T18:40:58.896Z,43.60
2018-02-22T18:43:25.119Z,43.50
2018-02-22T18:45:51.343Z,43.50
2018-02-22T18:48:17.603Z,43.50
2018-02-22T18:50:43.890Z,43.50
2018-02-22T18:53:10.115Z,43.40
2018-02-22T18:55:37.111Z,43.40
2018-02-22T18:58:03.353Z,43.40
2018-02-22T19:00:29.611Z,43.30
2018-02-22T19:02:55.870Z,43.30
2018-02-22T19:05:22.097Z,43.30
2018-02-22T19:07:48.322Z,43.30
2018-02-22T19:10:14.539Z,43.20
2018-02-22T19:12:40.774Z,43.20
2018-02-22T19:15:07.047Z,43.20
2018-02-22T19:17:33.305Z,43.20
2018-02-22T19:19:59.535Z,43.30
2018-02-22T19:22:25.803Z,43.20
2018-02-22T19:24:52.049Z,43.20
2018-02-22T19:27:18.299Z,43.30
2018-02-22T19:29:44.517Z,43.20
2018-02-22T19:32:11.119Z,43.20
2018-02-22T19:34:37.564Z,43.10
2018-02-22T19:37:04.004Z,43.20
2018-02-22T19:39:30.263Z,43.20
2018-02-22T19:41:56.509Z,43.90
2018-02-22T19:44:22.768Z,43.50
2018-02-22T19:46:49.390Z,43.50
2018-02-22T19:49:16.262Z,43.50
2018-02-22T19:51:42.870Z,43.60
2018-02-22T19:54:09.126Z,43.50
2018-02-22T19:56:35.351Z,43.70
2018-02-22T19:59:01.579Z,43.60
2018-02-22T20:01:27.939Z,43.60
2018-02-22T20:03:54.589Z,43.70
2018-02-22T20:06:21.172Z,43.70
2018-02-22T20:08:47.593Z,43.70
2018-02-22T20:11:13.839Z,43.70
2018-02-22T20:13:40.059Z,43.70
2018-02-22T20:16:06.419Z,43.60
2018-02-22T20:18:32.693Z,43.80
2018-02-22T20:20:58.933Z,43.70
2018-02-22T20:23:25.161Z,43.80
2018-02-22T20:25:51.422Z,43.80
2018-02-22T20:28:18.613Z,43.80
2018-02-22T20:30:45.197Z,43.70
2018-02-22T20:33:11.627Z,43.90
2018-02-22T20:35:37.855Z,43.90
2018-02-22T20:38:04.477Z,43.90
2018-02-22T20:40:30.806Z,43.90
2018-02-22T20:42:57.049Z,43.90
2018-02-22T20:45:23.380Z,42.40
2018-02-22T20:47:49.622Z,41.80
2018-02-22T20:50:15.845Z,42.20
2018-02-22T20:52:42.096Z,41.30
2018-02-22T20:55:08.344Z,40.50
2018-02-22T20:57:34.664Z,40.60
2018-02-22T21:00:01.676Z,40.60
2018-02-22T21:02:27.900Z,41.20
2018-02-22T21:04:54.149Z,41.90
2018-02-22T21:07:21.863Z,42.80
2018-02-22T21:09:48.141Z,42.20
2018-02-22T21:12:14.376Z,42.30
2018-02-22T21:14:40.631Z,42.50
2018-02-22T21:17:06.928Z,42.50
2018-02-22T21:19:33.174Z,42.60
2018-02-22T21:22:00.167Z,42.70
2018-02-22T21:24:26.545Z,42.70
2018-02-22T21:26:52.766Z,42.70
2018-02-22T21:29:19.681Z,42.80
2018-02-22T21:31:45.921Z,42.90
2018-02-22T21:34:12.965Z,42.90
2018-02-22T21:36:39.974Z,43.00
2018-02-22T21:39:06.193Z,43.00
2018-02-22T21:41:32.437Z,43.00
2018-02-22T21:43:58.682Z,43.00
2018-02-22T21:46:24.970Z,43.20
2018-02-22T21:48:51.211Z,43.20
2018-02-22T21:51:17.490Z,43.10
2018-02-22T21:53:43.994Z,43.20
2018-02-22T21:56:10.222Z,43.20
2018-02-22T21:58:36.480Z,43.20
2018-02-22T22:01:02.726Z,43.30
2018-02-22T22:03:28.975Z,43.20
2018-02-22T22:05:55.215Z,42.90
2018-02-22T22:08:21.473Z,43.30
2018-02-22T22:10:47.750Z,42.00
2018-02-22T22:13:13.983Z,41.20
2018-02-22T22:15:40.221Z,40.90
2018-02-22T22:18:07.250Z,40.40
2018-02-22T22:20:33.507Z,40.60
2018-02-22T22:22:59.785Z,40.40
2018-02-22T22:25:26.020Z,39.20
2018-02-22T22:27:52.242Z,38.80
2018-02-22T22:30:19.480Z,38.90
2018-02-22T22:32:45.707Z,38.80
2018-02-22T22:35:11.948Z,38.60
2018-02-22T22:37:38.166Z,40.20
2018-02-22T22:40:04.411Z,40.70
2018-02-22T22:42:31.361Z,40.90
2018-02-22T22:44:57.584Z,41.00
2018-02-22T22:47:23.854Z,41.00
2018-02-22T22:49:50.094Z,41.20
2018-02-22T22:52:16.342Z,41.30
2018-02-22T22:54:42.584Z,41.30
2018-02-22T22:57:08.801Z,41.30
2018-02-22T22:59:35.081Z,41.30
2018-02-22T23:02:01.308Z,41.50
2018-02-22T23:04:27.538Z,41.40
2018-02-22T23:06:54.545Z,41.40
2018-02-22T23:09:20.765Z,41.40
2018-02-22T23:11:47.035Z,41.50
2018-02-22T23:14:13.469Z,41.50
2018-02-22T23:16:39.701Z,41.50
2018-02-22T23:19:05.990Z,41.60
2018-02-22T23:21:32.249Z,41.60
2018-02-22T23:23:59.207Z,41.60
2018-02-22T23:26:25.449Z,41.70
2018-02-22T23:28:52.281Z,41.70
2018-02-22T23:31:18.511Z,41.70
